Time;durP1;ratioP1;P1;durP2;ratioP2;P2;SDS_P1;SDS_P2;PMS_P1;PMS_P2;Temp;Humidity;BMP_temperature;BMP_pressure;BME280_temperature;BME280_humidity;BME280_pressure;Samples;Min_cycle;Max_cycle;Signal;HPM_P1;HPM_P2
2023/04/16 00:01:37;;;;;;;3.13;2.83;;;;;;;;;;5011658;28;20204;-27
2023/04/16 00:04:04;;;;;;;2.93;2.73;;;;;;;;;;5027554;28;20218;-29
2023/04/16 00:06:31;;;;;;;3.37;2.67;;;;;;;;;;5016654;28;20208;-29
2023/04/16 00:08:58;;;;;;;2.63;2.40;;;;;;;;;;5017518;28;20203;-29
2023/04/16 00:11:26;;;;;;;3.10;2.83;;;;;;;;;;5018780;28;20206;-28
2023/04/16 00:13:53;;;;;;;4.10;3.00;;;;;;;;;;5024881;28;20313;-30
2023/04/16 00:16:20;;;;;;;2.93;2.53;;;;;;;;;;5016420;28;20218;-29
2023/04/16 00:18:48;;;;;;;3.70;3.20;;;;;;;;;;5021922;28;20211;-28
2023/04/16 00:21:15;;;;;;;3.20;2.90;;;;;;;;;;5027485;28;20195;-26
2023/04/16 00:23:43;;;;;;;2.70;2.50;;;;;;;;;;5031465;28;20234;-30
2023/04/16 00:26:10;;;;;;;2.80;2.60;;;;;;;;;;5017700;28;20210;-28
2023/04/16 00:28:37;;;;;;;2.90;2.60;;;;;;;;;;5013399;28;20212;-27
2023/04/16 00:31:04;;;;;;;3.10;2.63;;;;;;;;;;5029168;28;20244;-27
2023/04/16 00:33:31;;;;;;;3.27;2.93;;;;;;;;;;5016360;28;20293;-28
2023/04/16 00:36:00;;;;;;;3.10;2.87;;;;;;;;;;5023139;28;20203;-27
2023/04/16 00:38:29;;;;;;;3.50;3.20;;;;;;;;;;5031601;28;20206;-30
2023/04/16 00:40:57;;;;;;;3.30;2.83;;;;;;;;;;5010537;28;20241;-29
2023/04/16 00:43:25;;;;;;;3.10;2.80;;;;;;;;;;5020010;28;20241;-30
2023/04/16 00:45:54;;;;;;;3.70;3.40;;;;;;;;;;5027510;28;20253;-29
2023/04/16 00:48:22;;;;;;;3.33;3.03;;;;;;;;;;5023203;28;20208;-28
2023/04/16 00:50:49;;;;;;;4.50;3.27;;;;;;;;;;5022912;28;20294;-31
2023/04/16 00:53:18;;;;;;;3.77;3.47;;;;;;;;;;5031289;28;20226;-28
2023/04/16 00:55:45;;;;;;;3.30;3.03;;;;;;;;;;5018102;28;20204;-26
2023/04/16 00:58:13;;;;;;;4.00;3.63;;;;;;;;;;5024029;28;20199;-28
2023/04/16 01:00:40;;;;;;;3.87;3.40;;;;;;;;;;5013751;28;20214;-27
2023/04/16 01:03:07;;;;;;;3.57;3.10;;;;;;;;;;5014088;28;20289;-29
2023/04/16 01:05:36;;;;;;;4.47;3.77;;;;;;;;;;5021160;28;20223;-26
2023/04/16 01:08:03;;;;;;;3.63;3.33;;;;;;;;;;5025837;28;20194;-31
2023/04/16 01:10:31;;;;;;;3.00;2.47;;;;;;;;;;5014240;28;20218;-29
2023/04/16 01:12:58;;;;;;;5.23;3.47;;;;;;;;;;5028590;28;20218;-28
2023/04/16 01:15:26;;;;;;;0.97;0.70;;;;;;;;;;5014122;28;20200;-29
2023/04/16 01:17:53;;;;;;;4.10;3.70;;;;;;;;;;5020632;28;20203;-28
2023/04/16 01:20:20;;;;;;;4.33;3.40;;;;;;;;;;5030820;28;20214;-25
2023/04/16 01:22:49;;;;;;;4.00;2.93;;;;;;;;;;5019823;28;20764;-27
2023/04/16 01:25:16;;;;;;;3.20;2.90;;;;;;;;;;5011257;28;20227;-28
2023/04/16 01:27:43;;;;;;;4.77;3.17;;;;;;;;;;5013159;28;20283;-31
2023/04/16 01:30:11;;;;;;;3.90;3.50;;;;;;;;;;5016770;28;20298;-30
2023/04/16 01:32:38;;;;;;;3.60;3.13;;;;;;;;;;5014137;28;20215;-28
2023/04/16 01:35:05;;;;;;;3.80;3.20;;;;;;;;;;5018788;28;20210;-26
2023/04/16 01:37:33;;;;;;;5.67;3.60;;;;;;;;;;5031090;28;20218;-29
2023/04/16 01:40:01;;;;;;;3.57;3.27;;;;;;;;;;5028870;28;20206;-28
2023/04/16 01:42:28;;;;;;;3.83;3.53;;;;;;;;;;5015147;28;20207;-27
2023/04/16 01:44:55;;;;;;;2.77;2.57;;;;;;;;;;5026903;28;20227;-28
2023/04/16 01:47:23;;;;;;;3.27;2.90;;;;;;;;;;5017620;28;20222;-25
2023/04/16 01:49:50;;;;;;;3.67;3.37;;;;;;;;;;5014552;28;20196;-30
2023/04/16 01:52:17;;;;;;;3.57;2.73;;;;;;;;;;5026049;28;20203;-28
2023/04/16 01:54:44;;;;;;;3.87;3.47;;;;;;;;;;5031353;28;20230;-29
2023/04/16 01:57:12;;;;;;;3.70;3.23;;;;;;;;;;5017136;28;20215;-27
2023/04/16 01:59:39;;;;;;;2.77;2.57;;;;;;;;;;5016841;28;20204;-28
2023/04/16 02:02:09;;;;;;;4.27;3.03;;;;;;;;;;5019562;28;20210;-27
2023/04/16 02:04:36;;;;;;;3.50;2.87;;;;;;;;;;5019310;28;20227;-28
2023/04/16 02:07:04;;;;;;;3.00;2.40;;;;;;;;;;5024403;28;20206;-27
2023/04/16 02:09:31;;;;;;;3.80;3.23;;;;;;;;;;5026214;28;20217;-29
2023/04/16 02:11:58;;;;;;;3.40;2.90;;;;;;;;;;5022611;28;20203;-26
2023/04/16 02:14:26;;;;;;;2.83;2.63;;;;;;;;;;5010698;28;20227;-28
2023/04/16 02:16:54;;;;;;;1.53;1.43;;;;;;;;;;5011837;28;20211;-28
2023/04/16 02:19:21;;;;;;;2.87;2.63;;;;;;;;;;5013754;28;20207;-26
2023/04/16 02:21:48;;;;;;;3.57;2.60;;;;;;;;;;5013101;28;20210;-29
2023/04/16 02:24:15;;;;;;;3.13;2.83;;;;;;;;;;5011579;28;20282;-29
2023/04/16 02:26:43;;;;;;;3.13;2.80;;;;;;;;;;5012422;28;20227;-29
2023/04/16 02:29:11;;;;;;;4.33;2.97;;;;;;;;;;5011333;28;20210;-29
2023/04/16 02:31:40;;;;;;;2.53;2.33;;;;;;;;;;5018440;28;20203;-29
2023/04/16 02:34:07;;;;;;;3.10;2.77;;;;;;;;;;5021131;28;20339;-28
2023/04/16 02:36:34;;;;;;;3.10;2.80;;;;;;;;;;5020656;28;20225;-28
2023/04/16 02:39:01;;;;;;;2.83;2.63;;;;;;;;;;5031119;28;20215;-27
2023/04/16 02:41:28;;;;;;;3.00;2.70;;;;;;;;;;5023560;28;20217;-29
2023/04/16 02:43:56;;;;;;;2.70;2.50;;;;;;;;;;5027646;28;20233;-28
2023/04/16 02:46:23;;;;;;;2.57;2.30;;;;;;;;;;5023480;28;20227;-26
2023/04/16 02:48:52;;;;;;;2.67;2.47;;;;;;;;;;5031059;28;20336;-30
2023/04/16 02:51:19;;;;;;;2.97;2.67;;;;;;;;;;5023488;28;20199;-29
2023/04/16 02:53:46;;;;;;;3.07;2.80;;;;;;;;;;5011721;28;20227;-27
2023/04/16 02:56:13;;;;;;;1.13;1.03;;;;;;;;;;5019853;28;20205;-27
2023/04/16 02:58:40;;;;;;;1.37;1.27;;;;;;;;;;5021352;28;20208;-28
2023/04/16 03:01:07;;;;;;;3.37;3.07;;;;;;;;;;5024063;28;20207;-27
2023/04/16 03:03:35;;;;;;;4.23;2.90;;;;;;;;;;5021979;28;20241;-29
2023/04/16 03:06:03;;;;;;;3.00;2.70;;;;;;;;;;5029340;28;20258;-26
2023/04/16 03:08:30;;;;;;;3.13;2.83;;;;;;;;;;5030023;28;20210;-27
2023/04/16 03:10:57;;;;;;;4.07;3.07;;;;;;;;;;5020484;28;20203;-26
2023/04/16 03:13:24;;;;;;;3.70;3.13;;;;;;;;;;5019445;28;20234;-29
2023/04/16 03:15:51;;;;;;;3.73;2.90;;;;;;;;;;5016917;28;20199;-27
2023/04/16 03:18:18;;;;;;;3.50;3.20;;;;;;;;;;5020959;28;20209;-28
2023/04/16 03:20:46;;;;;;;3.50;2.63;;;;;;;;;;5026607;28;20210;-28
2023/04/16 03:23:14;;;;;;;3.80;2.97;;;;;;;;;;5010036;28;20228;-27
2023/04/16 03:25:43;;;;;;;3.00;2.57;;;;;;;;;;5010244;28;20229;-28
2023/04/16 03:28:10;;;;;;;3.23;2.97;;;;;;;;;;5027363;28;20207;-27
2023/04/16 03:30:37;;;;;;;3.33;2.73;;;;;;;;;;5016818;28;20209;-30
2023/04/16 03:33:04;;;;;;;3.27;2.87;;;;;;;;;;5014173;28;20231;-30
2023/04/16 03:35:32;;;;;;;3.63;3.17;;;;;;;;;;5011254;28;20212;-26
2023/04/16 03:37:59;;;;;;;3.17;2.87;;;;;;;;;;5031892;28;20206;-29
2023/04/16 03:40:27;;;;;;;3.77;2.97;;;;;;;;;;5014735;28;20203;-26
2023/04/16 03:42:55;;;;;;;3.13;2.83;;;;;;;;;;5031650;28;20250;-28
2023/04/16 03:45:22;;;;;;;3.37;3.07;;;;;;;;;;5016993;28;20223;-31
2023/04/16 03:47:51;;;;;;;3.67;3.00;;;;;;;;;;5014654;28;20205;-28
2023/04/16 03:50:18;;;;;;;2.83;2.53;;;;;;;;;;5028119;28;20199;-27
2023/04/16 03:52:48;;;;;;;3.40;3.10;;;;;;;;;;5013530;28;20199;-29
2023/04/16 03:55:15;;;;;;;3.93;3.50;;;;;;;;;;5012091;28;20204;-29
2023/04/16 03:57:43;;;;;;;5.17;3.50;;;;;;;;;;5023278;28;20212;-26
2023/04/16 04:00:11;;;;;;;4.77;3.87;;;;;;;;;;5032664;28;20215;-26
2023/04/16 04:02:38;;;;;;;3.33;3.03;;;;;;;;;;5022744;28;20207;-30
2023/04/16 04:05:05;;;;;;;4.07;3.53;;;;;;;;;;5025465;28;20218;-28
2023/04/16 04:07:32;;;;;;;3.77;3.30;;;;;;;;;;5030286;28;20202;-31
2023/04/16 04:10:00;;;;;;;4.10;3.63;;;;;;;;;;5025210;28;20202;-29
2023/04/16 04:12:27;;;;;;;4.20;3.10;;;;;;;;;;5031004;28;20210;-27
2023/04/16 04:14:55;;;;;;;3.13;2.70;;;;;;;;;;5024941;28;20215;-26
2023/04/16 04:17:22;;;;;;;3.30;3.00;;;;;;;;;;5017094;28;20213;-30
2023/04/16 04:19:51;;;;;;;2.60;2.03;;;;;;;;;;5023456;28;20199;-30
2023/04/16 04:22:18;;;;;;;2.70;2.43;;;;;;;;;;5017100;28;20230;-29
2023/04/16 04:24:45;;;;;;;3.17;2.73;;;;;;;;;;5025629;28;20237;-30
2023/04/16 04:27:12;;;;;;;3.40;3.00;;;;;;;;;;5024203;28;20230;-27
2023/04/16 04:29:39;;;;;;;2.70;2.37;;;;;;;;;;5023155;28;20211;-27
2023/04/16 04:32:08;;;;;;;3.40;2.67;;;;;;;;;;5020291;28;20207;-25
2023/04/16 04:34:35;;;;;;;3.00;2.70;;;;;;;;;;5013146;28;20238;-30
2023/04/16 04:37:02;;;;;;;3.20;2.80;;;;;;;;;;5031245;28;20203;-28
2023/04/16 04:39:29;;;;;;;3.00;2.67;;;;;;;;;;5029272;28;20207;-27
2023/04/16 04:41:57;;;;;;;3.00;2.70;;;;;;;;;;5018250;28;20210;-30
2023/04/16 04:44:25;;;;;;;3.17;2.83;;;;;;;;;;5020386;28;20236;-26
2023/04/16 04:46:52;;;;;;;3.27;2.97;;;;;;;;;;5020019;28;20223;-29
2023/04/16 04:49:20;;;;;;;2.80;2.57;;;;;;;;;;5021563;28;20211;-30
2023/04/16 04:54:40;;;;;;;4.27;3.00;;;;;;;;;;5615531;22;20266;-29
2023/04/16 04:57:20;;;;;;;2.97;2.67;;;;;;;;;;5019340;28;20280;-29
2023/04/16 05:00:08;;;;;;;2.77;2.50;;;;;;;;;;5034777;28;20210;-30
2023/04/16 05:02:50;;;;;;;3.27;2.83;;;;;;;;;;5433697;22;20235;-28
2023/04/16 05:05:44;;;;;;;4.53;3.03;;;;;;;;;;5053384;28;20210;-27
2023/04/16 05:11:38;;;;;;;3.70;3.33;;;;;;;;;;5044339;28;20213;-30
2023/04/16 05:17:24;;;;;;;5.60;3.90;;;;;;;;;;5038080;28;20203;-27
2023/04/16 05:25:48;;;;;;;4.17;3.37;;;;;;;;;;5019871;28;20214;-28
2023/04/16 05:40:16;;;;;;;3.57;3.27;;;;;;;;;;5047594;28;20210;-29
2023/04/16 05:45:47;;;;;;;5.27;3.97;;;;;;;;;;5134970;22;20265;-28
2023/04/16 05:49:14;;;;;;;4.63;3.70;;;;;;;;;;5030775;28;20210;-29
2023/04/16 06:13:58;;;;;;;4.63;2.93;;;;;;;;;;5039044;28;20234;-30
2023/04/16 06:16:45;;;;;;;6.00;3.40;;;;;;;;;;5018136;28;20234;-27
2023/04/16 06:19:33;;;;;;;3.77;3.30;;;;;;;;;;5019992;28;20233;-29
2023/04/16 06:22:07;;;;;;;3.70;2.97;;;;;;;;;;5026442;28;20252;-29
2023/04/16 06:24:40;;;;;;;6.27;3.60;;;;;;;;;;5028588;28;20309;-29
2023/04/16 06:27:15;;;;;;;4.90;3.13;;;;;;;;;;5024200;28;20262;-27
2023/04/16 06:29:57;;;;;;;5.13;3.87;;;;;;;;;;5033173;28;20209;-30
2023/04/16 06:32:31;;;;;;;5.90;4.40;;;;;;;;;;5025176;28;20217;-28
2023/04/16 06:35:07;;;;;;;5.17;4.00;;;;;;;;;;5017919;28;20227;-30
2023/04/16 06:40:24;;;;;;;3.33;2.33;;;;;;;;;;5025669;28;20229;-26
2023/04/16 06:43:25;;;;;;;6.17;4.63;;;;;;;;;;5029156;28;20323;-29
2023/04/16 06:49:12;;;;;;;6.57;4.67;;;;;;;;;;5017232;28;20286;-27
2023/04/16 06:54:38;;;;;;;7.37;5.30;;;;;;;;;;5026451;28;20222;-30
2023/04/16 06:57:12;;;;;;;8.00;5.77;;;;;;;;;;5027166;28;20202;-26
2023/04/16 06:59:47;;;;;;;7.90;5.67;;;;;;;;;;5023152;28;20206;-28
2023/04/16 07:02:35;;;;;;;8.20;6.03;;;;;;;;;;5017650;28;20327;-28
2023/04/16 07:08:06;;;;;;;8.67;6.20;;;;;;;;;;5014569;28;20226;-25
2023/04/16 07:10:44;;;;;;;9.40;7.27;;;;;;;;;;5021420;28;20199;-27
2023/04/16 07:13:47;;;;;;;6.87;4.83;;;;;;;;;;5029851;28;20228;-26
2023/04/16 07:16:24;;;;;;;9.33;7.10;;;;;;;;;;5035883;28;20206;-26
2023/04/16 07:25:03;;;;;;;8.67;5.70;;;;;;;;;;5031877;28;20227;-26
2023/04/16 07:27:35;;;;;;;11.87;7.50;;;;;;;;;;5035511;28;20226;-27
2023/04/16 07:30:14;;;;;;;10.67;7.73;;;;;;;;;;5036546;28;20241;-26
2023/04/16 07:32:48;;;;;;;11.30;8.10;;;;;;;;;;5025074;28;20210;-28
2023/04/16 07:35:28;;;;;;;14.83;10.50;;;;;;;;;;5031039;28;20206;-28
2023/04/16 07:38:07;;;;;;;12.50;8.77;;;;;;;;;;5026837;28;20305;-29
2023/04/16 07:40:54;;;;;;;12.10;8.23;;;;;;;;;;5034099;28;20222;-27
2023/04/16 07:43:28;;;;;;;12.33;8.53;;;;;;;;;;5027829;28;20223;-26
2023/04/16 07:45:57;;;;;;;15.43;9.80;;;;;;;;;;5027378;28;20203;-27
2023/04/16 07:48:29;;;;;;;13.53;9.70;;;;;;;;;;5029982;28;20297;-27
2023/04/16 07:51:07;;;;;;;14.23;9.83;;;;;;;;;;5022047;28;20196;-29
2023/04/16 07:53:49;;;;;;;13.13;8.73;;;;;;;;;;5156876;22;20300;-26
2023/04/16 07:56:35;;;;;;;12.20;7.63;;;;;;;;;;5054593;28;20197;-29
2023/04/16 08:05:11;;;;;;;13.63;10.03;;;;;;;;;;5074685;28;20217;-25
2023/04/16 08:30:39;;;;;;;12.40;8.83;;;;;;;;;;5182918;22;20230;-29
2023/04/16 08:38:45;;;;;;;;;;;;;;;;;;;;;
2023/04/16 08:49:24;;;;;;;;;;;;;;;;;;;;;
2023/04/16 08:57:38;;;;;;;12.90;7.27;;;;;;;;;;5167806;22;20253;-27
2023/04/16 09:00:28;;;;;;;11.13;7.73;;;;;;;;;;5035548;28;20207;-28
2023/04/16 09:03:18;;;;;;;11.80;8.20;;;;;;;;;;5034727;28;20231;-25
2023/04/16 09:06:02;;;;;;;10.87;6.43;;;;;;;;;;5034311;28;20210;-25
2023/04/16 09:09:37;;;;;;;4.57;3.57;;;;;;;;;;5058784;22;20230;-27
2023/04/16 09:12:28;;;;;;;13.77;8.30;;;;;;;;;;5014087;28;20276;-28
2023/04/16 09:15:39;;;;;;;9.10;6.37;;;;;;;;;;4995415;28;20210;-28
2023/04/16 09:18:21;;;;;;;13.67;6.90;;;;;;;;;;4995144;28;20226;-27
2023/04/16 09:35:10;;;;;;;9.20;6.87;;;;;;;;;;5137766;22;20242;-26
2023/04/16 09:41:18;;;;;;;7.87;5.73;;;;;;;;;;5029430;28;20201;-28
2023/04/16 09:46:32;;;;;;;10.43;6.73;;;;;;;;;;5210536;22;20235;-25
2023/04/16 09:49:16;;;;;;;10.27;6.93;;;;;;;;;;5121429;22;20244;-33
2023/04/16 09:57:02;;;;;;;8.13;6.47;;;;;;;;;;5030865;28;20269;-26
2023/04/16 10:15:31;;;;;;;7.63;6.10;;;;;;;;;;5648314;22;21155;-29
2023/04/16 10:34:30;;;;;;;7.30;5.57;;;;;;;;;;5763872;22;20231;-30
2023/04/16 10:55:32;;;;;;;8.83;6.03;;;;;;;;;;5968229;22;20220;-32
2023/04/16 11:01:12;;;;;;;8.40;5.37;;;;;;;;;;5765440;22;20245;-34
2023/04/16 11:15:18;;;;;;;6.13;3.70;;;;;;;;;;5055343;28;20249;-26
2023/04/16 11:17:49;;;;;;;6.37;5.37;;;;;;;;;;5035913;28;20279;-28
2023/04/16 11:20:21;;;;;;;6.40;5.00;;;;;;;;;;5037069;28;20270;-29
2023/04/16 11:22:54;;;;;;;9.10;5.53;;;;;;;;;;5043919;28;20194;-27
2023/04/16 11:28:09;;;;;;;7.97;5.20;;;;;;;;;;5306555;22;20249;-28
2023/04/16 11:30:52;;;;;;;7.27;5.03;;;;;;;;;;5320309;22;20237;-33
2023/04/16 11:33:24;;;;;;;4.23;3.83;;;;;;;;;;5050366;28;20228;-33
2023/04/16 11:36:03;;;;;;;5.93;4.40;;;;;;;;;;5434757;22;20237;-28
2023/04/16 11:38:41;;;;;;;5.67;4.97;;;;;;;;;;5036678;28;20214;-28
2023/04/16 11:41:17;;;;;;;4.50;3.53;;;;;;;;;;5027804;28;20278;-30
2023/04/16 11:43:54;;;;;;;7.03;4.90;;;;;;;;;;5035178;28;20226;-26
2023/04/16 11:47:05;;;;;;;6.23;4.50;;;;;;;;;;5031058;28;20199;-26
2023/04/16 11:49:50;;;;;;;7.07;4.50;;;;;;;;;;5017518;28;20203;-26
2023/04/16 11:52:42;;;;;;;5.83;4.27;;;;;;;;;;5145515;22;20248;-27
2023/04/16 11:55:09;;;;;;;6.00;4.30;;;;;;;;;;5069766;22;20318;-27
2023/04/16 11:57:37;;;;;;;6.10;4.87;;;;;;;;;;5066058;28;20564;-28
2023/04/16 12:00:05;;;;;;;6.87;4.13;;;;;;;;;;5074706;28;20258;-30
2023/04/16 12:02:40;;;;;;;5.80;4.07;;;;;;;;;;5069006;28;20243;-26
2023/04/16 12:05:09;;;;;;;4.80;3.80;;;;;;;;;;5069997;28;20233;-28
2023/04/16 12:07:45;;;;;;;4.73;3.77;;;;;;;;;;5074995;28;20217;-27
2023/04/16 12:10:12;;;;;;;4.30;3.70;;;;;;;;;;5065806;28;20217;-27
2023/04/16 12:12:39;;;;;;;4.20;3.43;;;;;;;;;;5064951;28;20252;-29
2023/04/16 12:15:07;;;;;;;5.43;4.10;;;;;;;;;;5074978;28;20204;-29
2023/04/16 12:17:35;;;;;;;6.33;3.73;;;;;;;;;;5064538;28;20198;-25
2023/04/16 12:20:05;;;;;;;3.57;2.80;;;;;;;;;;5069527;28;20239;-27
2023/04/16 12:22:33;;;;;;;4.03;2.80;;;;;;;;;;5074420;28;20205;-27
2023/04/16 12:25:01;;;;;;;3.87;3.10;;;;;;;;;;5064577;28;20326;-30
2023/04/16 12:27:42;;;;;;;4.23;2.53;;;;;;;;;;5072688;28;20570;-27
2023/04/16 12:30:11;;;;;;;4.80;3.00;;;;;;;;;;5074414;28;20193;-27
2023/04/16 12:32:38;;;;;;;3.70;3.30;;;;;;;;;;5065984;28;20237;-26
2023/04/16 12:35:07;;;;;;;4.20;3.00;;;;;;;;;;5074102;28;20212;-27
2023/04/16 12:37:35;;;;;;;3.17;2.83;;;;;;;;;;5074361;28;20209;-26
2023/04/16 12:40:03;;;;;;;3.83;2.70;;;;;;;;;;5066387;28;20234;-26
2023/04/16 12:42:34;;;;;;;3.47;2.77;;;;;;;;;;5070667;28;20205;-26
2023/04/16 12:45:02;;;;;;;5.47;2.20;;;;;;;;;;5072543;28;20206;-25
2023/04/16 12:47:29;;;;;;;8.17;2.50;;;;;;;;;;5060567;28;20284;-28
2023/04/16 12:49:57;;;;;;;2.87;2.43;;;;;;;;;;5069256;28;20229;-28
2023/04/16 12:52:26;;;;;;;3.70;3.00;;;;;;;;;;5073628;28;20262;-29
2023/04/16 12:54:54;;;;;;;3.20;2.50;;;;;;;;;;5062622;28;20221;-28
2023/04/16 12:57:27;;;;;;;4.27;2.73;;;;;;;;;;5069654;28;20209;-28
2023/04/16 12:59:54;;;;;;;3.07;2.73;;;;;;;;;;5067550;28;20190;-25
2023/04/16 13:02:21;;;;;;;3.43;2.93;;;;;;;;;;5067711;28;20207;-28
2023/04/16 13:04:50;;;;;;;3.10;2.20;;;;;;;;;;5073219;28;20225;-27
2023/04/16 13:07:18;;;;;;;2.27;2.07;;;;;;;;;;5074071;28;20311;-25
2023/04/16 13:09:46;;;;;;;2.93;2.40;;;;;;;;;;5068032;28;20198;-26
2023/04/16 13:12:14;;;;;;;2.87;2.67;;;;;;;;;;5068418;28;20212;-25
2023/04/16 13:14:41;;;;;;;2.33;2.13;;;;;;;;;;5073096;28;20248;-25
2023/04/16 13:17:11;;;;;;;3.70;2.20;;;;;;;;;;5065556;28;20210;-29
2023/04/16 13:19:38;;;;;;;3.40;2.53;;;;;;;;;;5071236;28;20237;-25
2023/04/16 13:22:05;;;;;;;4.00;2.60;;;;;;;;;;5073418;28;20256;-27
2023/04/16 13:24:32;;;;;;;4.00;2.80;;;;;;;;;;5072860;28;20225;-27
2023/04/16 13:27:01;;;;;;;4.37;2.67;;;;;;;;;;5062862;28;20206;-25
2023/04/16 13:29:28;;;;;;;6.70;2.67;;;;;;;;;;5071062;28;20244;-26
2023/04/16 13:31:56;;;;;;;2.97;2.50;;;;;;;;;;5067241;28;20201;-27
2023/04/16 13:34:23;;;;;;;3.27;2.63;;;;;;;;;;5064202;28;20279;-27
2023/04/16 13:36:50;;;;;;;3.60;3.30;;;;;;;;;;5073425;28;20212;-29
2023/04/16 13:39:17;;;;;;;2.90;2.63;;;;;;;;;;5068851;28;20204;-28
2023/04/16 13:41:44;;;;;;;5.43;3.10;;;;;;;;;;5067567;28;20215;-26
2023/04/16 13:44:13;;;;;;;3.80;2.90;;;;;;;;;;5072723;28;20316;-27
2023/04/16 13:46:42;;;;;;;4.10;3.50;;;;;;;;;;5066189;28;20198;-24
2023/04/16 13:49:09;;;;;;;5.40;4.20;;;;;;;;;;5068123;28;20221;-28
2023/04/16 13:51:36;;;;;;;10.73;8.17;;;;;;;;;;5071854;28;20203;-25
2023/04/16 13:54:03;;;;;;;1.50;1.40;;;;;;;;;;5072449;28;20244;-27
2023/04/16 13:56:31;;;;;;;3.90;2.50;;;;;;;;;;5061050;28;20292;-28
2023/04/16 13:58:59;;;;;;;8.00;5.00;;;;;;;;;;5069722;28;20204;-27
2023/04/16 14:01:28;;;;;;;4.43;4.00;;;;;;;;;;5065786;28;20204;-25
2023/04/16 14:03:55;;;;;;;13.70;10.27;;;;;;;;;;5071749;28;20221;-28
2023/04/16 14:06:22;;;;;;;5.53;4.53;;;;;;;;;;5072462;28;20205;-27
2023/04/16 14:08:49;;;;;;;7.40;6.27;;;;;;;;;;5067415;28;20228;-28
2023/04/16 14:11:17;;;;;;;4.50;3.60;;;;;;;;;;5068237;28;20215;-25
2023/04/16 14:13:44;;;;;;;4.90;3.17;;;;;;;;;;5072220;28;20221;-30
2023/04/16 14:16:11;;;;;;;4.23;3.47;;;;;;;;;;5065585;28;20228;-26
2023/04/16 14:18:41;;;;;;;3.90;2.50;;;;;;;;;;5061839;28;20213;-27
2023/04/16 14:21:08;;;;;;;4.60;3.10;;;;;;;;;;5071745;28;20198;-28
2023/04/16 14:23:35;;;;;;;3.30;3.00;;;;;;;;;;5070526;28;20221;-27
2023/04/16 14:26:02;;;;;;;4.10;3.30;;;;;;;;;;5066006;28;20236;-25
2023/04/16 14:28:30;;;;;;;3.77;3.23;;;;;;;;;;5067203;28;20221;-25
2023/04/16 14:30:57;;;;;;;4.53;3.37;;;;;;;;;;5070180;28;20209;-26
2023/04/16 14:33:24;;;;;;;4.53;3.23;;;;;;;;;;5068829;28;20244;-28
2023/04/16 14:35:53;;;;;;;5.13;4.13;;;;;;;;;;5073332;28;20198;-28
2023/04/16 14:38:20;;;;;;;4.17;3.67;;;;;;;;;;5073218;28;20208;-28
2023/04/16 14:40:47;;;;;;;4.97;3.53;;;;;;;;;;5067812;28;20205;-29
2023/04/16 14:43:14;;;;;;;5.07;4.33;;;;;;;;;;5067243;28;20247;-27
2023/04/16 14:45:41;;;;;;;6.37;4.70;;;;;;;;;;5073046;28;20292;-27
2023/04/16 14:48:09;;;;;;;5.17;4.00;;;;;;;;;;5061585;28;20266;-28
2023/04/16 14:50:37;;;;;;;5.50;3.67;;;;;;;;;;5070726;28;20205;-29
2023/04/16 14:53:06;;;;;;;1.80;1.53;;;;;;;;;;5073035;28;20232;-25
2023/04/16 14:55:33;;;;;;;4.90;4.20;;;;;;;;;;5068780;28;20250;-25
2023/04/16 14:58:00;;;;;;;6.33;4.87;;;;;;;;;;5068443;28;20204;-29
2023/04/16 15:00:31;;;;;;;4.37;3.27;;;;;;;;;;5070927;28;20315;-30
2023/04/16 15:02:58;;;;;;;7.83;4.70;;;;;;;;;;5061867;28;20217;-26
2023/04/16 15:05:26;;;;;;;4.90;4.13;;;;;;;;;;5068248;28;20232;-26
2023/04/16 15:07:53;;;;;;;5.77;4.37;;;;;;;;;;5072450;28;20300;-26
2023/04/16 15:10:22;;;;;;;6.93;4.77;;;;;;;;;;5072007;28;20502;-27
2023/04/16 15:12:49;;;;;;;6.97;5.03;;;;;;;;;;5063877;28;20288;-29
2023/04/16 15:15:16;;;;;;;5.33;3.90;;;;;;;;;;5071532;28;20275;-27
2023/04/16 15:17:44;;;;;;;7.77;5.53;;;;;;;;;;5059918;28;20212;-27
2023/04/16 15:20:12;;;;;;;6.60;5.00;;;;;;;;;;5067256;28;20300;-27
2023/04/16 15:22:39;;;;;;;8.57;5.37;;;;;;;;;;5071760;28;20252;-26
2023/04/16 15:25:07;;;;;;;6.27;5.17;;;;;;;;;;5063949;28;20236;-27
2023/04/16 15:27:35;;;;;;;5.77;4.53;;;;;;;;;;5068362;28;20212;-26
2023/04/16 15:30:02;;;;;;;8.10;5.37;;;;;;;;;;5071496;28;20225;-26
2023/04/16 15:32:29;;;;;;;7.57;5.77;;;;;;;;;;5062181;28;20210;-26
2023/04/16 15:34:57;;;;;;;6.50;5.13;;;;;;;;;;5075185;28;20223;-24
2023/04/16 15:37:24;;;;;;;7.27;5.27;;;;;;;;;;5075712;28;20233;-25
2023/04/16 15:39:51;;;;;;;7.60;5.17;;;;;;;;;;5071852;28;20213;-25
2023/04/16 15:42:18;;;;;;;7.20;5.50;;;;;;;;;;5076128;28;20209;-27
2023/04/16 15:44:47;;;;;;;8.57;6.50;;;;;;;;;;5074613;28;20232;-28
2023/04/16 15:47:14;;;;;;;9.13;7.30;;;;;;;;;;5069069;28;20209;-25
2023/04/16 15:49:41;;;;;;;9.00;5.97;;;;;;;;;;5076058;28;20235;-27
2023/04/16 15:52:09;;;;;;;7.80;6.20;;;;;;;;;;5076457;28;20223;-28
2023/04/16 15:54:36;;;;;;;8.50;5.80;;;;;;;;;;5076517;28;20244;-25
2023/04/16 15:57:03;;;;;;;9.13;6.07;;;;;;;;;;5065225;28;20210;-26
2023/04/16 15:59:30;;;;;;;8.47;5.77;;;;;;;;;;5066177;28;20300;-25
2023/04/16 16:01:59;;;;;;;8.30;6.20;;;;;;;;;;5067079;28;20208;-27
2023/04/16 16:04:26;;;;;;;9.83;7.07;;;;;;;;;;5074266;28;20217;-28
2023/04/16 16:06:54;;;;;;;6.57;5.87;;;;;;;;;;5075115;28;20209;-25
2023/04/16 16:09:25;;;;;;;10.10;7.33;;;;;;;;;;5074413;28;20232;-26
2023/04/16 16:11:53;;;;;;;8.70;6.50;;;;;;;;;;5065219;28;20201;-28
2023/04/16 16:14:20;;;;;;;8.87;7.17;;;;;;;;;;5074323;28;20225;-30
2023/04/16 16:16:47;;;;;;;11.23;6.87;;;;;;;;;;5066012;28;20213;-27
2023/04/16 16:19:16;;;;;;;9.17;6.80;;;;;;;;;;5064472;28;20201;-28
2023/04/16 16:21:43;;;;;;;9.13;6.53;;;;;;;;;;5072899;28;20229;-26
2023/04/16 16:24:10;;;;;;;9.47;6.57;;;;;;;;;;5069381;28;20229;-26
2023/04/16 16:26:37;;;;;;;9.87;6.27;;;;;;;;;;5071255;28;20209;-29
2023/04/16 16:29:04;;;;;;;7.33;5.93;;;;;;;;;;5073562;28;20278;-28
2023/04/16 16:31:31;;;;;;;7.30;5.83;;;;;;;;;;5069493;28;20221;-27
2023/04/16 16:33:59;;;;;;;9.73;6.97;;;;;;;;;;5069261;28;20293;-25
2023/04/16 16:36:28;;;;;;;9.33;6.17;;;;;;;;;;5074264;28;20217;-28
2023/04/16 16:38:56;;;;;;;7.70;6.00;;;;;;;;;;5070781;28;20210;-26
2023/04/16 16:41:24;;;;;;;6.10;4.83;;;;;;;;;;5065966;28;20213;-26
2023/04/16 16:43:54;;;;;;;8.57;6.10;;;;;;;;;;5066207;28;20217;-28
2023/04/16 16:46:21;;;;;;;10.43;6.97;;;;;;;;;;5069857;28;20201;-26
2023/04/16 16:48:48;;;;;;;8.23;5.60;;;;;;;;;;5073574;28;20235;-26
2023/04/16 16:51:17;;;;;;;8.23;6.30;;;;;;;;;;5074198;28;20229;-25
2023/04/16 16:53:46;;;;;;;10.00;6.40;;;;;;;;;;5074675;28;20229;-26
2023/04/16 16:56:13;;;;;;;10.70;7.20;;;;;;;;;;5065292;28;20305;-28
2023/04/16 16:58:40;;;;;;;11.30;7.63;;;;;;;;;;5072236;28;20201;-28
2023/04/16 17:01:07;;;;;;;9.63;6.60;;;;;;;;;;5066750;28;20215;-27
2023/04/16 17:03:35;;;;;;;13.40;7.70;;;;;;;;;;5067438;28;20221;-27
2023/04/16 17:06:20;;;;;;;11.90;7.63;;;;;;;;;;5073585;28;20608;-27
2023/04/16 17:08:49;;;;;;;13.77;7.70;;;;;;;;;;5066957;28;20218;-27
2023/04/16 17:11:16;;;;;;;15.23;8.90;;;;;;;;;;5068420;28;20213;-25
2023/04/16 17:13:43;;;;;;;9.07;6.60;;;;;;;;;;5069348;28;20229;-29
2023/04/16 17:16:30;;;;;;;8.90;6.77;;;;;;;;;;5062612;28;20312;-27
2023/04/16 17:18:58;;;;;;;11.20;8.23;;;;;;;;;;5066324;28;20201;-26
2023/04/16 17:21:25;;;;;;;10.77;7.43;;;;;;;;;;5074603;28;20277;-29
2023/04/16 17:23:56;;;;;;;9.53;6.60;;;;;;;;;;5075083;28;20229;-29
2023/04/16 17:26:23;;;;;;;9.23;7.17;;;;;;;;;;5069878;28;20206;-27
2023/04/16 17:28:50;;;;;;;27.63;17.47;;;;;;;;;;5073471;28;20479;-26
2023/04/16 17:31:17;;;;;;;10.20;7.70;;;;;;;;;;5068271;28;20224;-26
2023/04/16 17:33:45;;;;;;;8.90;6.13;;;;;;;;;;5063315;28;20225;-29
2023/04/16 17:36:12;;;;;;;12.30;7.90;;;;;;;;;;5073307;28;20237;-28
2023/04/16 17:38:40;;;;;;;13.00;8.57;;;;;;;;;;5070480;28;20205;-26
2023/04/16 17:41:08;;;;;;;11.80;7.93;;;;;;;;;;5062730;28;20276;-27
2023/04/16 17:43:35;;;;;;;11.73;8.00;;;;;;;;;;5070879;28;20225;-28
2023/04/16 17:46:03;;;;;;;10.60;7.47;;;;;;;;;;5068646;28;20217;-30
2023/04/16 17:48:30;;;;;;;10.47;7.57;;;;;;;;;;5067163;28;20205;-27
2023/04/16 17:50:57;;;;;;;8.83;6.77;;;;;;;;;;5072835;28;20209;-24
2023/04/16 17:53:24;;;;;;;11.53;8.00;;;;;;;;;;5069303;28;20229;-26
2023/04/16 17:55:51;;;;;;;10.53;7.37;;;;;;;;;;5066494;28;20210;-25
2023/04/16 17:58:21;;;;;;;9.03;7.17;;;;;;;;;;5071993;28;20201;-25
2023/04/16 18:00:49;;;;;;;9.50;6.77;;;;;;;;;;5070558;28;20284;-27
2023/04/16 18:03:16;;;;;;;9.77;7.07;;;;;;;;;;5064128;28;20285;-26
2023/04/16 18:05:43;;;;;;;9.40;6.27;;;;;;;;;;5070441;28;20258;-24
2023/04/16 18:08:10;;;;;;;10.30;7.83;;;;;;;;;;5072142;28;20233;-27
2023/04/16 18:10:39;;;;;;;9.77;7.20;;;;;;;;;;5072874;28;20322;-26
2023/04/16 18:13:06;;;;;;;10.50;7.23;;;;;;;;;;5060752;28;20240;-28
2023/04/16 18:15:37;;;;;;;9.20;5.27;;;;;;;;;;5070620;28;20284;-28
2023/04/16 18:18:26;;;;;;;;;;;;;;;;;;;;;
2023/04/16 18:20:54;;;;;;;9.57;7.20;;;;;;;;;;5071829;28;20197;-28
2023/04/16 18:23:21;;;;;;;9.87;7.57;;;;;;;;;;5070173;28;20315;-28
2023/04/16 18:25:48;;;;;;;10.93;7.07;;;;;;;;;;5058244;28;20227;-28
2023/04/16 18:28:16;;;;;;;12.90;8.27;;;;;;;;;;5070263;28;20208;-29
2023/04/16 18:30:44;;;;;;;13.07;8.47;;;;;;;;;;5070363;28;20267;-29
2023/04/16 18:33:12;;;;;;;9.77;6.90;;;;;;;;;;5058102;28;20225;-27
2023/04/16 18:35:40;;;;;;;11.23;8.17;;;;;;;;;;5069357;28;20221;-24